sensor_id;sensor_type;location;lat;lon;timestamp;P1;durP1;ratioP1;P2;durP2;ratioP2
13408;SDS011;6775;49.574;11.170;2022-12-20T00:00:59;21.30;;;12.03;;
13408;SDS011;6775;49.574;11.170;2022-12-20T00:03:26;21.43;;;12.07;;
13408;SDS011;6775;49.574;11.170;2022-12-20T00:05:55;21.97;;;12.50;;
13408;SDS011;6775;49.574;11.170;2022-12-20T00:08:23;19.10;;;12.17;;
13408;SDS011;6775;49.574;11.170;2022-12-20T00:10:51;22.53;;;12.37;;
13408;SDS011;6775;49.574;11.170;2022-12-20T00:13:19;22.03;;;12.37;;
13408;SDS011;6775;49.574;11.170;2022-12-20T00:15:47;23.73;;;13.10;;
13408;SDS011;6775;49.574;11.170;2022-12-20T00:18:15;24.73;;;13.53;;
13408;SDS011;6775;49.574;11.170;2022-12-20T00:20:43;22.67;;;12.17;;
13408;SDS011;6775;49.574;11.170;2022-12-20T00:23:12;20.50;;;11.93;;
13408;SDS011;6775;49.574;11.170;2022-12-20T00:25:40;24.03;;;13.10;;
13408;SDS011;6775;49.574;11.170;2022-12-20T00:28:07;27.17;;;14.40;;
13408;SDS011;6775;49.574;11.170;2022-12-20T00:30:35;25.40;;;13.27;;
13408;SDS011;6775;49.574;11.170;2022-12-20T00:33:03;22.97;;;13.30;;
13408;SDS011;6775;49.574;11.170;2022-12-20T00:35:31;22.17;;;12.97;;
13408;SDS011;6775;49.574;11.170;2022-12-20T00:37:59;20.73;;;11.70;;
13408;SDS011;6775;49.574;11.170;2022-12-20T00:40:28;22.57;;;12.93;;
13408;SDS011;6775;49.574;11.170;2022-12-20T00:42:55;24.63;;;13.57;;
13408;SDS011;6775;49.574;11.170;2022-12-20T00:45:23;24.87;;;14.00;;
13408;SDS011;6775;49.574;11.170;2022-12-20T00:47:51;21.07;;;11.17;;
13408;SDS011;6775;49.574;11.170;2022-12-20T00:50:19;23.03;;;13.00;;
13408;SDS011;6775;49.574;11.170;2022-12-20T00:52:47;21.90;;;12.90;;
13408;SDS011;6775;49.574;11.170;2022-12-20T00:55:14;22.27;;;11.83;;
13408;SDS011;6775;49.574;11.170;2022-12-20T00:57:44;22.50;;;11.83;;
13408;SDS011;6775;49.574;11.170;2022-12-20T01:00:12;24.97;;;13.73;;
13408;SDS011;6775;49.574;11.170;2022-12-20T01:02:40;21.60;;;12.10;;
13408;SDS011;6775;49.574;11.170;2022-12-20T01:05:08;23.83;;;13.67;;
13408;SDS011;6775;49.574;11.170;2022-12-20T01:07:36;23.70;;;12.77;;
13408;SDS011;6775;49.574;11.170;2022-12-20T01:10:04;26.93;;;15.30;;
13408;SDS011;6775;49.574;11.170;2022-12-20T01:12:32;22.80;;;13.17;;
13408;SDS011;6775;49.574;11.170;2022-12-20T01:15:01;24.57;;;13.40;;
13408;SDS011;6775;49.574;11.170;2022-12-20T01:17:30;23.30;;;13.57;;
13408;SDS011;6775;49.574;11.170;2022-12-20T01:19:58;26.47;;;14.57;;
13408;SDS011;6775;49.574;11.170;2022-12-20T01:22:26;22.10;;;13.40;;
13408;SDS011;6775;49.574;11.170;2022-12-20T01:24:54;21.40;;;12.57;;
13408;SDS011;6775;49.574;11.170;2022-12-20T01:27:22;23.60;;;13.30;;
13408;SDS011;6775;49.574;11.170;2022-12-20T01:29:50;24.33;;;13.10;;
13408;SDS011;6775;49.574;11.170;2022-12-20T01:32:19;23.50;;;13.77;;
13408;SDS011;6775;49.574;11.170;2022-12-20T01:34:47;25.77;;;14.33;;
13408;SDS011;6775;49.574;11.170;2022-12-20T01:37:15;27.07;;;14.60;;
13408;SDS011;6775;49.574;11.170;2022-12-20T01:39:42;26.77;;;13.23;;
13408;SDS011;6775;49.574;11.170;2022-12-20T01:42:11;30.30;;;15.47;;
13408;SDS011;6775;49.574;11.170;2022-12-20T01:44:51;24.00;;;13.33;;
13408;SDS011;6775;49.574;11.170;2022-12-20T01:47:25;22.20;;;14.33;;
13408;SDS011;6775;49.574;11.170;2022-12-20T01:49:56;24.50;;;12.47;;
13408;SDS011;6775;49.574;11.170;2022-12-20T01:52:28;21.33;;;12.60;;
13408;SDS011;6775;49.574;11.170;2022-12-20T01:55:03;21.90;;;12.93;;
13408;SDS011;6775;49.574;11.170;2022-12-20T01:57:36;22.77;;;12.93;;
13408;SDS011;6775;49.574;11.170;2022-12-20T02:00:08;22.00;;;12.20;;
13408;SDS011;6775;49.574;11.170;2022-12-20T02:02:39;20.47;;;12.37;;
13408;SDS011;6775;49.574;11.170;2022-12-20T02:05:09;20.30;;;11.30;;
13408;SDS011;6775;49.574;11.170;2022-12-20T02:07:39;17.83;;;10.87;;
13408;SDS011;6775;49.574;11.170;2022-12-20T02:10:10;22.40;;;12.53;;
13408;SDS011;6775;49.574;11.170;2022-12-20T02:12:39;21.47;;;12.30;;
13408;SDS011;6775;49.574;11.170;2022-12-20T02:15:13;21.70;;;11.00;;
13408;SDS011;6775;49.574;11.170;2022-12-20T02:18:15;19.00;;;12.07;;
13408;SDS011;6775;49.574;11.170;2022-12-20T02:20:52;21.43;;;12.53;;
13408;SDS011;6775;49.574;11.170;2022-12-20T02:26:42;23.90;;;14.10;;
13408;SDS011;6775;49.574;11.170;2022-12-20T02:29:37;21.90;;;12.93;;
13408;SDS011;6775;49.574;11.170;2022-12-20T02:32:13;21.53;;;12.43;;
13408;SDS011;6775;49.574;11.170;2022-12-20T02:34:43;22.57;;;13.37;;
13408;SDS011;6775;49.574;11.170;2022-12-20T02:37:12;23.07;;;13.57;;
13408;SDS011;6775;49.574;11.170;2022-12-20T02:39:39;24.37;;;14.03;;
13408;SDS011;6775;49.574;11.170;2022-12-20T02:42:11;23.07;;;13.60;;
13408;SDS011;6775;49.574;11.170;2022-12-20T02:44:41;23.53;;;13.00;;
13408;SDS011;6775;49.574;11.170;2022-12-20T02:47:32;26.30;;;14.50;;
13408;SDS011;6775;49.574;11.170;2022-12-20T02:50:03;25.33;;;14.13;;
13408;SDS011;6775;49.574;11.170;2022-12-20T02:52:33;26.50;;;14.63;;
13408;SDS011;6775;49.574;11.170;2022-12-20T02:55:05;26.57;;;14.93;;
13408;SDS011;6775;49.574;11.170;2022-12-20T02:57:36;29.23;;;15.10;;
13408;SDS011;6775;49.574;11.170;2022-12-20T03:00:10;26.67;;;15.33;;
13408;SDS011;6775;49.574;11.170;2022-12-20T03:02:42;23.33;;;13.50;;
13408;SDS011;6775;49.574;11.170;2022-12-20T03:05:29;26.50;;;14.67;;
13408;SDS011;6775;49.574;11.170;2022-12-20T03:08:00;28.50;;;15.40;;
13408;SDS011;6775;49.574;11.170;2022-12-20T03:10:28;25.00;;;15.10;;
13408;SDS011;6775;49.574;11.170;2022-12-20T03:12:57;21.20;;;12.87;;
13408;SDS011;6775;49.574;11.170;2022-12-20T03:15:24;24.77;;;13.87;;
13408;SDS011;6775;49.574;11.170;2022-12-20T03:17:54;22.77;;;14.23;;
13408;SDS011;6775;49.574;11.170;2022-12-20T03:20:21;24.93;;;14.33;;
13408;SDS011;6775;49.574;11.170;2022-12-20T03:22:49;26.17;;;14.67;;
13408;SDS011;6775;49.574;11.170;2022-12-20T03:25:17;21.47;;;12.83;;
13408;SDS011;6775;49.574;11.170;2022-12-20T03:27:45;23.33;;;13.17;;
13408;SDS011;6775;49.574;11.170;2022-12-20T03:30:13;23.87;;;13.63;;
13408;SDS011;6775;49.574;11.170;2022-12-20T03:32:41;23.37;;;13.83;;
13408;SDS011;6775;49.574;11.170;2022-12-20T03:35:11;21.90;;;12.67;;
13408;SDS011;6775;49.574;11.170;2022-12-20T03:37:39;24.77;;;13.17;;
13408;SDS011;6775;49.574;11.170;2022-12-20T03:40:07;20.30;;;12.07;;
13408;SDS011;6775;49.574;11.170;2022-12-20T03:42:36;23.50;;;13.57;;
13408;SDS011;6775;49.574;11.170;2022-12-20T03:45:04;19.70;;;11.70;;
13408;SDS011;6775;49.574;11.170;2022-12-20T03:47:33;19.83;;;11.73;;
13408;SDS011;6775;49.574;11.170;2022-12-20T03:50:01;19.07;;;11.63;;
13408;SDS011;6775;49.574;11.170;2022-12-20T03:52:30;23.70;;;12.67;;
13408;SDS011;6775;49.574;11.170;2022-12-20T03:54:58;19.27;;;11.83;;
13408;SDS011;6775;49.574;11.170;2022-12-20T03:57:26;16.87;;;10.20;;
13408;SDS011;6775;49.574;11.170;2022-12-20T03:59:54;19.70;;;12.07;;
13408;SDS011;6775;49.574;11.170;2022-12-20T04:02:22;20.40;;;12.27;;
13408;SDS011;6775;49.574;11.170;2022-12-20T04:04:50;23.37;;;13.20;;
13408;SDS011;6775;49.574;11.170;2022-12-20T04:07:18;23.57;;;15.13;;
13408;SDS011;6775;49.574;11.170;2022-12-20T04:09:47;24.93;;;14.10;;
13408;SDS011;6775;49.574;11.170;2022-12-20T04:12:15;24.17;;;13.40;;
13408;SDS011;6775;49.574;11.170;2022-12-20T04:14:43;25.13;;;14.67;;
13408;SDS011;6775;49.574;11.170;2022-12-20T04:17:11;23.87;;;14.47;;
13408;SDS011;6775;49.574;11.170;2022-12-20T04:19:39;23.90;;;13.47;;
13408;SDS011;6775;49.574;11.170;2022-12-20T04:22:07;24.97;;;13.77;;
13408;SDS011;6775;49.574;11.170;2022-12-20T04:24:35;27.47;;;15.37;;
13408;SDS011;6775;49.574;11.170;2022-12-20T04:27:04;25.03;;;15.13;;
13408;SDS011;6775;49.574;11.170;2022-12-20T04:29:32;25.60;;;14.17;;
13408;SDS011;6775;49.574;11.170;2022-12-20T04:32:00;27.87;;;14.17;;
13408;SDS011;6775;49.574;11.170;2022-12-20T04:34:28;26.03;;;14.70;;
13408;SDS011;6775;49.574;11.170;2022-12-20T04:36:55;25.07;;;14.73;;
13408;SDS011;6775;49.574;11.170;2022-12-20T04:39:23;24.70;;;14.13;;
13408;SDS011;6775;49.574;11.170;2022-12-20T04:41:51;22.43;;;13.80;;
13408;SDS011;6775;49.574;11.170;2022-12-20T04:44:21;24.80;;;14.43;;
13408;SDS011;6775;49.574;11.170;2022-12-20T04:46:51;22.70;;;13.90;;
13408;SDS011;6775;49.574;11.170;2022-12-20T04:49:19;21.83;;;13.43;;
13408;SDS011;6775;49.574;11.170;2022-12-20T04:51:47;25.67;;;14.30;;
13408;SDS011;6775;49.574;11.170;2022-12-20T04:54:14;24.33;;;14.90;;
13408;SDS011;6775;49.574;11.170;2022-12-20T04:56:41;25.63;;;14.43;;
13408;SDS011;6775;49.574;11.170;2022-12-20T04:59:09;25.63;;;14.23;;
13408;SDS011;6775;49.574;11.170;2022-12-20T05:01:39;25.80;;;15.13;;
13408;SDS011;6775;49.574;11.170;2022-12-20T05:04:07;25.53;;;14.30;;
13408;SDS011;6775;49.574;11.170;2022-12-20T05:06:35;25.50;;;14.17;;
13408;SDS011;6775;49.574;11.170;2022-12-20T05:09:03;23.73;;;13.97;;
13408;SDS011;6775;49.574;11.170;2022-12-20T05:11:30;26.47;;;14.00;;
13408;SDS011;6775;49.574;11.170;2022-12-20T05:13:58;25.33;;;14.23;;
13408;SDS011;6775;49.574;11.170;2022-12-20T05:16:26;20.90;;;13.77;;
13408;SDS011;6775;49.574;11.170;2022-12-20T05:18:55;23.57;;;13.63;;
13408;SDS011;6775;49.574;11.170;2022-12-20T05:21:23;24.20;;;13.43;;
13408;SDS011;6775;49.574;11.170;2022-12-20T05:24:08;25.43;;;14.87;;
13408;SDS011;6775;49.574;11.170;2022-12-20T05:26:54;23.97;;;14.10;;
13408;SDS011;6775;49.574;11.170;2022-12-20T05:29:22;21.43;;;12.20;;
13408;SDS011;6775;49.574;11.170;2022-12-20T05:31:50;26.10;;;14.50;;
13408;SDS011;6775;49.574;11.170;2022-12-20T05:34:20;24.57;;;14.37;;
13408;SDS011;6775;49.574;11.170;2022-12-20T05:36:48;25.50;;;13.80;;
13408;SDS011;6775;49.574;11.170;2022-12-20T05:39:16;18.37;;;12.63;;
13408;SDS011;6775;49.574;11.170;2022-12-20T05:41:44;23.43;;;14.33;;
13408;SDS011;6775;49.574;11.170;2022-12-20T05:44:12;23.50;;;13.53;;
13408;SDS011;6775;49.574;11.170;2022-12-20T05:46:40;20.23;;;13.57;;
13408;SDS011;6775;49.574;11.170;2022-12-20T05:49:08;20.50;;;13.60;;
13408;SDS011;6775;49.574;11.170;2022-12-20T05:51:37;24.50;;;14.03;;
13408;SDS011;6775;49.574;11.170;2022-12-20T05:54:06;23.17;;;14.30;;
13408;SDS011;6775;49.574;11.170;2022-12-20T05:56:34;21.07;;;11.80;;
13408;SDS011;6775;49.574;11.170;2022-12-20T05:59:02;20.47;;;12.37;;
13408;SDS011;6775;49.574;11.170;2022-12-20T06:01:30;26.60;;;14.53;;
13408;SDS011;6775;49.574;11.170;2022-12-20T06:03:58;24.73;;;14.00;;
13408;SDS011;6775;49.574;11.170;2022-12-20T06:06:26;21.93;;;13.67;;
13408;SDS011;6775;49.574;11.170;2022-12-20T06:08:55;25.07;;;14.47;;
13408;SDS011;6775;49.574;11.170;2022-12-20T06:11:23;21.23;;;12.60;;
13408;SDS011;6775;49.574;11.170;2022-12-20T06:13:55;21.43;;;12.80;;
13408;SDS011;6775;49.574;11.170;2022-12-20T06:16:24;23.00;;;13.27;;
13408;SDS011;6775;49.574;11.170;2022-12-20T06:18:52;28.07;;;15.37;;
13408;SDS011;6775;49.574;11.170;2022-12-20T06:21:20;24.67;;;14.73;;
13408;SDS011;6775;49.574;11.170;2022-12-20T06:23:48;23.40;;;13.90;;
13408;SDS011;6775;49.574;11.170;2022-12-20T06:26:17;24.70;;;15.27;;
13408;SDS011;6775;49.574;11.170;2022-12-20T06:28:45;24.40;;;13.73;;
13408;SDS011;6775;49.574;11.170;2022-12-20T06:31:17;23.13;;;14.10;;
13408;SDS011;6775;49.574;11.170;2022-12-20T06:33:45;22.63;;;14.13;;
13408;SDS011;6775;49.574;11.170;2022-12-20T06:36:13;24.73;;;13.80;;
13408;SDS011;6775;49.574;11.170;2022-12-20T06:38:41;23.83;;;13.63;;
13408;SDS011;6775;49.574;11.170;2022-12-20T06:41:09;25.47;;;14.57;;
13408;SDS011;6775;49.574;11.170;2022-12-20T06:43:38;24.07;;;14.30;;
13408;SDS011;6775;49.574;11.170;2022-12-20T06:46:06;24.00;;;14.20;;
13408;SDS011;6775;49.574;11.170;2022-12-20T06:48:34;22.53;;;14.13;;
13408;SDS011;6775;49.574;11.170;2022-12-20T06:51:02;21.70;;;14.30;;
13408;SDS011;6775;49.574;11.170;2022-12-20T06:53:30;25.57;;;14.47;;
13408;SDS011;6775;49.574;11.170;2022-12-20T06:55:58;19.10;;;12.83;;
13408;SDS011;6775;49.574;11.170;2022-12-20T06:58:26;25.17;;;13.63;;
13408;SDS011;6775;49.574;11.170;2022-12-20T07:00:55;24.20;;;14.83;;
13408;SDS011;6775;49.574;11.170;2022-12-20T07:03:23;22.53;;;13.83;;
13408;SDS011;6775;49.574;11.170;2022-12-20T07:05:51;22.93;;;13.30;;
13408;SDS011;6775;49.574;11.170;2022-12-20T07:08:20;23.00;;;13.27;;
13408;SDS011;6775;49.574;11.170;2022-12-20T07:10:49;25.23;;;14.43;;
13408;SDS011;6775;49.574;11.170;2022-12-20T07:13:17;26.60;;;14.63;;
13408;SDS011;6775;49.574;11.170;2022-12-20T07:15:45;24.70;;;13.53;;
13408;SDS011;6775;49.574;11.170;2022-12-20T07:18:15;22.67;;;13.07;;
13408;SDS011;6775;49.574;11.170;2022-12-20T07:20:43;20.90;;;13.43;;
13408;SDS011;6775;49.574;11.170;2022-12-20T07:23:10;21.87;;;13.47;;
13408;SDS011;6775;49.574;11.170;2022-12-20T07:25:38;18.93;;;12.90;;
13408;SDS011;6775;49.574;11.170;2022-12-20T07:28:06;22.53;;;13.13;;
13408;SDS011;6775;49.574;11.170;2022-12-20T07:30:34;20.97;;;13.43;;
13408;SDS011;6775;49.574;11.170;2022-12-20T07:33:03;25.33;;;14.10;;
13408;SDS011;6775;49.574;11.170;2022-12-20T07:35:32;23.63;;;13.30;;
13408;SDS011;6775;49.574;11.170;2022-12-20T07:38:00;20.67;;;12.67;;
13408;SDS011;6775;49.574;11.170;2022-12-20T07:40:28;20.40;;;12.20;;
13408;SDS011;6775;49.574;11.170;2022-12-20T07:42:56;24.97;;;15.17;;
13408;SDS011;6775;49.574;11.170;2022-12-20T07:45:24;22.20;;;13.57;;
13408;SDS011;6775;49.574;11.170;2022-12-20T07:47:52;17.83;;;12.80;;
13408;SDS011;6775;49.574;11.170;2022-12-20T07:50:22;20.43;;;13.43;;
13408;SDS011;6775;49.574;11.170;2022-12-20T07:52:52;21.37;;;13.00;;
13408;SDS011;6775;49.574;11.170;2022-12-20T07:55:21;21.00;;;12.20;;
13408;SDS011;6775;49.574;11.170;2022-12-20T07:57:50;23.37;;;12.83;;
13408;SDS011;6775;49.574;11.170;2022-12-20T08:00:22;19.83;;;11.63;;
13408;SDS011;6775;49.574;11.170;2022-12-20T08:02:51;19.50;;;11.53;;
13408;SDS011;6775;49.574;11.170;2022-12-20T08:05:25;21.10;;;12.87;;
13408;SDS011;6775;49.574;11.170;2022-12-20T08:07:54;19.37;;;12.03;;
13408;SDS011;6775;49.574;11.170;2022-12-20T08:10:25;16.50;;;11.40;;
13408;SDS011;6775;49.574;11.170;2022-12-20T08:12:54;25.73;;;13.70;;
13408;SDS011;6775;49.574;11.170;2022-12-20T08:15:23;21.40;;;13.40;;
13408;SDS011;6775;49.574;11.170;2022-12-20T08:17:52;21.70;;;12.97;;
13408;SDS011;6775;49.574;11.170;2022-12-20T08:20:20;23.73;;;14.53;;
13408;SDS011;6775;49.574;11.170;2022-12-20T08:22:48;21.00;;;11.90;;
13408;SDS011;6775;49.574;11.170;2022-12-20T08:25:17;17.93;;;11.97;;
13408;SDS011;6775;49.574;11.170;2022-12-20T08:27:46;22.10;;;13.77;;
13408;SDS011;6775;49.574;11.170;2022-12-20T08:30:14;21.40;;;12.77;;
13408;SDS011;6775;49.574;11.170;2022-12-20T08:32:43;20.27;;;11.17;;
13408;SDS011;6775;49.574;11.170;2022-12-20T08:35:11;22.43;;;13.70;;
13408;SDS011;6775;49.574;11.170;2022-12-20T08:37:39;22.60;;;13.67;;
13408;SDS011;6775;49.574;11.170;2022-12-20T08:40:08;22.97;;;13.27;;
13408;SDS011;6775;49.574;11.170;2022-12-20T08:42:38;20.07;;;11.20;;
13408;SDS011;6775;49.574;11.170;2022-12-20T08:45:06;16.50;;;10.63;;
13408;SDS011;6775;49.574;11.170;2022-12-20T08:47:34;16.80;;;11.03;;
13408;SDS011;6775;49.574;11.170;2022-12-20T08:50:02;24.40;;;14.10;;
13408;SDS011;6775;49.574;11.170;2022-12-20T08:52:31;17.20;;;10.73;;
13408;SDS011;6775;49.574;11.170;2022-12-20T08:54:59;16.63;;;10.63;;
13408;SDS011;6775;49.574;11.170;2022-12-20T08:57:30;23.23;;;13.10;;
13408;SDS011;6775;49.574;11.170;2022-12-20T08:59:59;19.70;;;12.83;;
13408;SDS011;6775;49.574;11.170;2022-12-20T09:02:28;18.33;;;10.83;;
13408;SDS011;6775;49.574;11.170;2022-12-20T09:04:57;14.13;;;9.03;;
13408;SDS011;6775;49.574;11.170;2022-12-20T09:07:25;18.77;;;12.33;;
13408;SDS011;6775;49.574;11.170;2022-12-20T09:09:54;21.80;;;12.90;;
13408;SDS011;6775;49.574;11.170;2022-12-20T09:12:22;15.73;;;10.80;;
13408;SDS011;6775;49.574;11.170;2022-12-20T09:14:50;16.20;;;10.13;;
13408;SDS011;6775;49.574;11.170;2022-12-20T09:17:19;19.10;;;11.63;;
13408;SDS011;6775;49.574;11.170;2022-12-20T09:19:47;19.50;;;11.87;;
13408;SDS011;6775;49.574;11.170;2022-12-20T09:22:15;19.13;;;12.33;;
13408;SDS011;6775;49.574;11.170;2022-12-20T09:24:43;18.53;;;11.17;;
13408;SDS011;6775;49.574;11.170;2022-12-20T09:27:11;16.57;;;9.57;;
13408;SDS011;6775;49.574;11.170;2022-12-20T09:29:39;21.40;;;13.23;;
13408;SDS011;6775;49.574;11.170;2022-12-20T09:32:07;15.50;;;10.17;;
13408;SDS011;6775;49.574;11.170;2022-12-20T09:34:36;17.13;;;10.17;;
13408;SDS011;6775;49.574;11.170;2022-12-20T09:37:04;15.70;;;10.23;;
13408;SDS011;6775;49.574;11.170;2022-12-20T09:39:32;17.50;;;10.33;;
13408;SDS011;6775;49.574;11.170;2022-12-20T09:42:00;17.27;;;10.63;;
13408;SDS011;6775;49.574;11.170;2022-12-20T09:44:34;14.60;;;9.73;;
13408;SDS011;6775;49.574;11.170;2022-12-20T09:47:06;15.67;;;9.33;;
13408;SDS011;6775;49.574;11.170;2022-12-20T09:49:40;15.63;;;9.27;;
13408;SDS011;6775;49.574;11.170;2022-12-20T09:55:13;17.97;;;11.60;;
13408;SDS011;6775;49.574;11.170;2022-12-20T09:57:48;13.57;;;9.87;;
13408;SDS011;6775;49.574;11.170;2022-12-20T10:00:22;18.03;;;11.63;;
13408;SDS011;6775;49.574;11.170;2022-12-20T10:02:50;17.00;;;11.30;;
13408;SDS011;6775;49.574;11.170;2022-12-20T10:05:35;17.23;;;10.70;;
13408;SDS011;6775;49.574;11.170;2022-12-20T10:08:10;17.37;;;10.57;;
13408;SDS011;6775;49.574;11.170;2022-12-20T10:10:50;17.77;;;11.23;;
13408;SDS011;6775;49.574;11.170;2022-12-20T10:13:24;22.17;;;12.00;;
13408;SDS011;6775;49.574;11.170;2022-12-20T10:16:14;18.60;;;10.87;;
13408;SDS011;6775;49.574;11.170;2022-12-20T10:18:53;16.27;;;10.83;;
13408;SDS011;6775;49.574;11.170;2022-12-20T10:21:35;17.40;;;10.83;;
13408;SDS011;6775;49.574;11.170;2022-12-20T10:24:09;16.73;;;10.00;;
13408;SDS011;6775;49.574;11.170;2022-12-20T10:26:40;15.33;;;9.83;;
13408;SDS011;6775;49.574;11.170;2022-12-20T10:29:09;15.27;;;9.37;;
13408;SDS011;6775;49.574;11.170;2022-12-20T10:31:37;12.07;;;8.50;;
13408;SDS011;6775;49.574;11.170;2022-12-20T10:34:05;13.27;;;8.30;;
13408;SDS011;6775;49.574;11.170;2022-12-20T10:36:35;13.37;;;8.67;;
13408;SDS011;6775;49.574;11.170;2022-12-20T10:39:04;11.80;;;8.00;;
13408;SDS011;6775;49.574;11.170;2022-12-20T10:41:45;13.67;;;8.83;;
13408;SDS011;6775;49.574;11.170;2022-12-20T10:44:16;17.40;;;9.13;;
13408;SDS011;6775;49.574;11.170;2022-12-20T10:46:47;16.10;;;10.63;;
13408;SDS011;6775;49.574;11.170;2022-12-20T10:49:20;14.00;;;8.97;;
13408;SDS011;6775;49.574;11.170;2022-12-20T10:51:54;16.17;;;9.60;;
13408;SDS011;6775;49.574;11.170;2022-12-20T10:54:24;12.63;;;8.87;;
13408;SDS011;6775;49.574;11.170;2022-12-20T10:56:57;16.27;;;10.10;;
13408;SDS011;6775;49.574;11.170;2022-12-20T10:59:31;16.10;;;9.40;;
13408;SDS011;6775;49.574;11.170;2022-12-20T11:02:01;16.97;;;10.17;;
13408;SDS011;6775;49.574;11.170;2022-12-20T11:04:55;16.27;;;9.87;;
13408;SDS011;6775;49.574;11.170;2022-12-20T11:07:28;15.70;;;9.37;;
13408;SDS011;6775;49.574;11.170;2022-12-20T11:09:58;15.13;;;9.30;;
13408;SDS011;6775;49.574;11.170;2022-12-20T11:12:28;15.20;;;10.03;;
13408;SDS011;6775;49.574;11.170;2022-12-20T11:15:06;14.43;;;9.30;;
13408;SDS011;6775;49.574;11.170;2022-12-20T11:17:36;15.57;;;9.70;;
13408;SDS011;6775;49.574;11.170;2022-12-20T11:20:14;16.03;;;9.63;;
13408;SDS011;6775;49.574;11.170;2022-12-20T11:22:54;16.70;;;9.37;;
13408;SDS011;6775;49.574;11.170;2022-12-20T11:25:35;15.40;;;9.17;;
13408;SDS011;6775;49.574;11.170;2022-12-20T11:28:17;17.93;;;10.27;;
13408;SDS011;6775;49.574;11.170;2022-12-20T11:30:57;17.03;;;9.63;;
13408;SDS011;6775;49.574;11.170;2022-12-20T11:36:43;13.97;;;9.40;;
13408;SDS011;6775;49.574;11.170;2022-12-20T11:39:31;13.73;;;8.80;;
13408;SDS011;6775;49.574;11.170;2022-12-20T11:42:07;14.03;;;8.63;;
13408;SDS011;6775;49.574;11.170;2022-12-20T11:44:48;12.43;;;7.67;;
13408;SDS011;6775;49.574;11.170;2022-12-20T11:47:39;14.80;;;8.50;;
13408;SDS011;6775;49.574;11.170;2022-12-20T11:50:41;14.90;;;9.07;;
13408;SDS011;6775;49.574;11.170;2022-12-20T11:53:20;14.60;;;9.53;;
13408;SDS011;6775;49.574;11.170;2022-12-20T11:55:55;17.63;;;9.93;;
13408;SDS011;6775;49.574;11.170;2022-12-20T11:58:29;17.43;;;10.67;;
13408;SDS011;6775;49.574;11.170;2022-12-20T12:01:07;17.27;;;10.57;;
13408;SDS011;6775;49.574;11.170;2022-12-20T12:03:39;15.90;;;10.27;;
13408;SDS011;6775;49.574;11.170;2022-12-20T12:06:10;14.83;;;10.33;;
13408;SDS011;6775;49.574;11.170;2022-12-20T12:08:47;13.47;;;9.07;;
13408;SDS011;6775;49.574;11.170;2022-12-20T12:11:20;16.53;;;9.77;;
13408;SDS011;6775;49.574;11.170;2022-12-20T12:14:15;15.73;;;10.03;;
13408;SDS011;6775;49.574;11.170;2022-12-20T12:16:52;19.53;;;10.73;;
13408;SDS011;6775;49.574;11.170;2022-12-20T12:19:25;17.13;;;9.90;;
13408;SDS011;6775;49.574;11.170;2022-12-20T12:21:56;15.17;;;9.93;;
13408;SDS011;6775;49.574;11.170;2022-12-20T12:24:31;16.37;;;9.67;;
13408;SDS011;6775;49.574;11.170;2022-12-20T12:27:06;16.37;;;9.80;;
13408;SDS011;6775;49.574;11.170;2022-12-20T12:29:41;16.90;;;10.00;;
13408;SDS011;6775;49.574;11.170;2022-12-20T12:32:12;14.43;;;9.27;;
13408;SDS011;6775;49.574;11.170;2022-12-20T12:34:50;13.73;;;8.97;;
13408;SDS011;6775;49.574;11.170;2022-12-20T12:37:31;14.63;;;8.90;;
13408;SDS011;6775;49.574;11.170;2022-12-20T12:40:28;15.10;;;8.90;;
13408;SDS011;6775;49.574;11.170;2022-12-20T12:43:22;12.60;;;7.73;;
13408;SDS011;6775;49.574;11.170;2022-12-20T12:46:21;11.33;;;7.30;;
13408;SDS011;6775;49.574;11.170;2022-12-20T12:48:55;15.13;;;9.20;;
13408;SDS011;6775;49.574;11.170;2022-12-20T12:51:27;14.97;;;9.20;;
13408;SDS011;6775;49.574;11.170;2022-12-20T12:54:02;15.47;;;9.20;;
13408;SDS011;6775;49.574;11.170;2022-12-20T12:56:43;15.70;;;9.90;;
13408;SDS011;6775;49.574;11.170;2022-12-20T13:06:42;16.07;;;8.63;;
13408;SDS011;6775;49.574;11.170;2022-12-20T13:09:36;16.67;;;9.93;;
13408;SDS011;6775;49.574;11.170;2022-12-20T13:18:25;14.53;;;9.77;;
13408;SDS011;6775;49.574;11.170;2022-12-20T13:35:55;13.23;;;9.13;;
13408;SDS011;6775;49.574;11.170;2022-12-20T13:38:51;15.00;;;8.57;;
13408;SDS011;6775;49.574;11.170;2022-12-20T13:41:26;16.73;;;9.13;;
13408;SDS011;6775;49.574;11.170;2022-12-20T13:44:17;14.87;;;9.20;;
13408;SDS011;6775;49.574;11.170;2022-12-20T13:46:57;15.37;;;9.63;;
13408;SDS011;6775;49.574;11.170;2022-12-20T13:49:33;17.13;;;9.27;;
13408;SDS011;6775;49.574;11.170;2022-12-20T13:52:20;12.70;;;9.00;;
13408;SDS011;6775;49.574;11.170;2022-12-20T13:54:52;15.73;;;9.30;;
13408;SDS011;6775;49.574;11.170;2022-12-20T13:57:25;16.33;;;9.37;;
13408;SDS011;6775;49.574;11.170;2022-12-20T13:59:56;15.13;;;9.33;;
13408;SDS011;6775;49.574;11.170;2022-12-20T14:02:33;13.60;;;8.50;;
13408;SDS011;6775;49.574;11.170;2022-12-20T14:05:12;11.40;;;8.07;;
13408;SDS011;6775;49.574;11.170;2022-12-20T14:07:47;13.00;;;8.00;;
13408;SDS011;6775;49.574;11.170;2022-12-20T14:10:22;14.43;;;9.03;;
13408;SDS011;6775;49.574;11.170;2022-12-20T14:12:53;16.90;;;8.73;;
13408;SDS011;6775;49.574;11.170;2022-12-20T14:15:22;14.33;;;8.57;;
13408;SDS011;6775;49.574;11.170;2022-12-20T14:17:53;13.70;;;8.53;;
13408;SDS011;6775;49.574;11.170;2022-12-20T14:20:22;14.30;;;9.30;;
13408;SDS011;6775;49.574;11.170;2022-12-20T14:22:58;15.20;;;10.20;;
13408;SDS011;6775;49.574;11.170;2022-12-20T14:29:44;14.17;;;9.33;;
13408;SDS011;6775;49.574;11.170;2022-12-20T14:32:16;16.57;;;10.17;;
13408;SDS011;6775;49.574;11.170;2022-12-20T14:34:45;13.90;;;9.10;;
13408;SDS011;6775;49.574;11.170;2022-12-20T14:37:23;16.97;;;10.37;;
13408;SDS011;6775;49.574;11.170;2022-12-20T14:39:56;15.63;;;10.33;;
13408;SDS011;6775;49.574;11.170;2022-12-20T14:42:28;14.13;;;10.60;;
13408;SDS011;6775;49.574;11.170;2022-12-20T14:45:04;16.60;;;9.63;;
13408;SDS011;6775;49.574;11.170;2022-12-20T14:47:46;16.60;;;9.70;;
13408;SDS011;6775;49.574;11.170;2022-12-20T14:50:17;17.80;;;10.10;;
13408;SDS011;6775;49.574;11.170;2022-12-20T14:52:47;17.93;;;10.63;;
13408;SDS011;6775;49.574;11.170;2022-12-20T14:55:17;16.87;;;10.20;;
13408;SDS011;6775;49.574;11.170;2022-12-20T14:57:48;18.77;;;10.23;;
13408;SDS011;6775;49.574;11.170;2022-12-20T15:00:21;18.57;;;9.60;;
13408;SDS011;6775;49.574;11.170;2022-12-20T15:02:55;16.40;;;9.97;;
13408;SDS011;6775;49.574;11.170;2022-12-20T15:05:41;16.40;;;9.17;;
13408;SDS011;6775;49.574;11.170;2022-12-20T15:08:16;16.27;;;9.07;;
13408;SDS011;6775;49.574;11.170;2022-12-20T15:10:48;14.47;;;8.70;;
13408;SDS011;6775;49.574;11.170;2022-12-20T15:13:19;17.03;;;10.13;;
13408;SDS011;6775;49.574;11.170;2022-12-20T15:15:49;18.93;;;10.70;;
13408;SDS011;6775;49.574;11.170;2022-12-20T15:18:17;17.73;;;10.43;;
13408;SDS011;6775;49.574;11.170;2022-12-20T15:20:48;14.80;;;9.63;;
13408;SDS011;6775;49.574;11.170;2022-12-20T15:23:26;16.73;;;10.50;;
13408;SDS011;6775;49.574;11.170;2022-12-20T15:25:56;21.60;;;11.20;;
13408;SDS011;6775;49.574;11.170;2022-12-20T15:28:25;19.90;;;11.20;;
13408;SDS011;6775;49.574;11.170;2022-12-20T15:30:53;19.20;;;11.13;;